sensor_id;sensor_type;location;lat;lon;timestamp;P1;durP1;ratioP1;P2;durP2;ratioP2
15449;SDS011;7826;49.784;9.934;2022-10-16T00:01:19;1.20;;;1.10;;
15449;SDS011;7826;49.784;9.934;2022-10-16T00:03:47;1.10;;;0.93;;
15449;SDS011;7826;49.784;9.934;2022-10-16T00:06:14;0.90;;;0.90;;
15449;SDS011;7826;49.784;9.934;2022-10-16T00:08:41;1.13;;;1.10;;
15449;SDS011;7826;49.784;9.934;2022-10-16T00:11:09;1.10;;;1.00;;
15449;SDS011;7826;49.784;9.934;2022-10-16T00:13:41;1.37;;;1.17;;
15449;SDS011;7826;49.784;9.934;2022-10-16T00:16:08;1.23;;;1.13;;
15449;SDS011;7826;49.784;9.934;2022-10-16T00:18:35;1.00;;;1.00;;
15449;SDS011;7826;49.784;9.934;2022-10-16T00:21:03;1.00;;;1.00;;
15449;SDS011;7826;49.784;9.934;2022-10-16T00:23:40;1.43;;;1.33;;
15449;SDS011;7826;49.784;9.934;2022-10-16T00:26:08;3.03;;;1.30;;
15449;SDS011;7826;49.784;9.934;2022-10-16T00:28:36;1.10;;;1.00;;
15449;SDS011;7826;49.784;9.934;2022-10-16T00:31:03;1.17;;;1.07;;
15449;SDS011;7826;49.784;9.934;2022-10-16T00:33:31;1.07;;;1.07;;
15449;SDS011;7826;49.784;9.934;2022-10-16T00:35:58;0.80;;;0.80;;
15449;SDS011;7826;49.784;9.934;2022-10-16T00:38:25;0.97;;;0.97;;
15449;SDS011;7826;49.784;9.934;2022-10-16T00:40:52;1.00;;;1.00;;
15449;SDS011;7826;49.784;9.934;2022-10-16T00:43:38;0.90;;;0.90;;
15449;SDS011;7826;49.784;9.934;2022-10-16T00:46:27;0.87;;;0.87;;
15449;SDS011;7826;49.784;9.934;2022-10-16T00:49:16;1.60;;;1.50;;
15449;SDS011;7826;49.784;9.934;2022-10-16T00:51:46;1.07;;;1.07;;
15449;SDS011;7826;49.784;9.934;2022-10-16T00:54:26;0.90;;;0.90;;
15449;SDS011;7826;49.784;9.934;2022-10-16T00:56:55;1.17;;;1.07;;
15449;SDS011;7826;49.784;9.934;2022-10-16T00:59:26;1.53;;;1.17;;
15449;SDS011;7826;49.784;9.934;2022-10-16T01:01:54;1.20;;;1.10;;
15449;SDS011;7826;49.784;9.934;2022-10-16T01:04:23;1.40;;;1.30;;
15449;SDS011;7826;49.784;9.934;2022-10-16T01:09:28;1.10;;;1.10;;
15449;SDS011;7826;49.784;9.934;2022-10-16T01:14:54;1.07;;;1.00;;
15449;SDS011;7826;49.784;9.934;2022-10-16T01:17:34;1.43;;;1.33;;
15449;SDS011;7826;49.784;9.934;2022-10-16T01:22:50;1.00;;;1.00;;
15449;SDS011;7826;49.784;9.934;2022-10-16T01:28:21;1.00;;;1.00;;
15449;SDS011;7826;49.784;9.934;2022-10-16T01:30:52;1.00;;;1.00;;
15449;SDS011;7826;49.784;9.934;2022-10-16T01:33:24;0.80;;;0.80;;
15449;SDS011;7826;49.784;9.934;2022-10-16T01:36:05;1.13;;;1.13;;
15449;SDS011;7826;49.784;9.934;2022-10-16T01:38:47;1.50;;;1.40;;
15449;SDS011;7826;49.784;9.934;2022-10-16T01:41:33;1.30;;;1.20;;
15449;SDS011;7826;49.784;9.934;2022-10-16T01:44:14;4.07;;;1.27;;
15449;SDS011;7826;49.784;9.934;2022-10-16T01:46:43;1.27;;;1.20;;
15449;SDS011;7826;49.784;9.934;2022-10-16T01:49:14;1.30;;;1.20;;
15449;SDS011;7826;49.784;9.934;2022-10-16T01:51:41;1.17;;;1.17;;
15449;SDS011;7826;49.784;9.934;2022-10-16T01:54:11;1.07;;;1.07;;
15449;SDS011;7826;49.784;9.934;2022-10-16T01:56:40;1.70;;;1.17;;
15449;SDS011;7826;49.784;9.934;2022-10-16T01:59:13;1.13;;;1.03;;
15449;SDS011;7826;49.784;9.934;2022-10-16T02:01:47;1.43;;;1.33;;
15449;SDS011;7826;49.784;9.934;2022-10-16T02:04:18;1.33;;;1.23;;
15449;SDS011;7826;49.784;9.934;2022-10-16T02:07:00;4.23;;;1.10;;
15449;SDS011;7826;49.784;9.934;2022-10-16T02:09:26;1.10;;;1.00;;
15449;SDS011;7826;49.784;9.934;2022-10-16T02:11:53;1.83;;;1.07;;
15449;SDS011;7826;49.784;9.934;2022-10-16T02:14:22;1.43;;;1.33;;
15449;SDS011;7826;49.784;9.934;2022-10-16T02:16:50;1.20;;;1.10;;
15449;SDS011;7826;49.784;9.934;2022-10-16T02:19:17;1.00;;;1.00;;
15449;SDS011;7826;49.784;9.934;2022-10-16T02:21:59;1.00;;;1.00;;
15449;SDS011;7826;49.784;9.934;2022-10-16T02:29:34;1.20;;;1.10;;
15449;SDS011;7826;49.784;9.934;2022-10-16T02:32:07;1.40;;;1.30;;
15449;SDS011;7826;49.784;9.934;2022-10-16T02:34:36;1.20;;;1.10;;
15449;SDS011;7826;49.784;9.934;2022-10-16T02:37:03;1.10;;;1.10;;
15449;SDS011;7826;49.784;9.934;2022-10-16T02:39:31;1.10;;;1.10;;
15449;SDS011;7826;49.784;9.934;2022-10-16T02:41:57;0.90;;;0.90;;
15449;SDS011;7826;49.784;9.934;2022-10-16T02:44:24;0.90;;;0.90;;
15449;SDS011;7826;49.784;9.934;2022-10-16T02:46:51;1.43;;;1.27;;
15449;SDS011;7826;49.784;9.934;2022-10-16T02:49:17;2.33;;;1.30;;
15449;SDS011;7826;49.784;9.934;2022-10-16T02:51:44;0.97;;;0.97;;
15449;SDS011;7826;49.784;9.934;2022-10-16T02:54:10;1.23;;;1.13;;
15449;SDS011;7826;49.784;9.934;2022-10-16T02:56:37;1.10;;;1.10;;
15449;SDS011;7826;49.784;9.934;2022-10-16T02:59:03;1.00;;;1.00;;
15449;SDS011;7826;49.784;9.934;2022-10-16T03:01:29;1.10;;;1.00;;
15449;SDS011;7826;49.784;9.934;2022-10-16T03:03:55;1.30;;;1.20;;
15449;SDS011;7826;49.784;9.934;2022-10-16T03:06:22;1.20;;;1.10;;
15449;SDS011;7826;49.784;9.934;2022-10-16T03:08:49;0.90;;;0.90;;
15449;SDS011;7826;49.784;9.934;2022-10-16T03:11:15;1.00;;;1.00;;
15449;SDS011;7826;49.784;9.934;2022-10-16T03:13:41;1.53;;;1.10;;
15449;SDS011;7826;49.784;9.934;2022-10-16T03:16:07;1.00;;;1.00;;
15449;SDS011;7826;49.784;9.934;2022-10-16T03:18:34;1.30;;;1.20;;
15449;SDS011;7826;49.784;9.934;2022-10-16T03:21:00;1.60;;;0.90;;
15449;SDS011;7826;49.784;9.934;2022-10-16T03:23:26;1.07;;;1.07;;
15449;SDS011;7826;49.784;9.934;2022-10-16T03:25:52;0.80;;;0.80;;
15449;SDS011;7826;49.784;9.934;2022-10-16T03:28:19;2.03;;;1.00;;
15449;SDS011;7826;49.784;9.934;2022-10-16T03:30:46;3.80;;;0.93;;
15449;SDS011;7826;49.784;9.934;2022-10-16T03:33:12;0.60;;;0.60;;
15449;SDS011;7826;49.784;9.934;2022-10-16T03:35:38;0.90;;;0.90;;
15449;SDS011;7826;49.784;9.934;2022-10-16T03:38:04;1.10;;;1.00;;
15449;SDS011;7826;49.784;9.934;2022-10-16T03:40:31;1.00;;;1.00;;
15449;SDS011;7826;49.784;9.934;2022-10-16T03:42:58;0.90;;;0.90;;
15449;SDS011;7826;49.784;9.934;2022-10-16T03:45:24;1.00;;;0.90;;
15449;SDS011;7826;49.784;9.934;2022-10-16T03:47:52;1.03;;;1.03;;
15449;SDS011;7826;49.784;9.934;2022-10-16T03:50:18;0.83;;;0.83;;
15449;SDS011;7826;49.784;9.934;2022-10-16T03:52:45;1.07;;;1.07;;
15449;SDS011;7826;49.784;9.934;2022-10-16T03:55:11;0.70;;;0.70;;
15449;SDS011;7826;49.784;9.934;2022-10-16T03:57:38;3.03;;;0.90;;
15449;SDS011;7826;49.784;9.934;2022-10-16T04:00:04;1.07;;;0.97;;
15449;SDS011;7826;49.784;9.934;2022-10-16T04:02:31;1.00;;;1.00;;
15449;SDS011;7826;49.784;9.934;2022-10-16T04:04:57;0.93;;;0.93;;
15449;SDS011;7826;49.784;9.934;2022-10-16T04:07:23;0.83;;;0.80;;
15449;SDS011;7826;49.784;9.934;2022-10-16T04:09:49;0.90;;;0.90;;
15449;SDS011;7826;49.784;9.934;2022-10-16T04:12:17;0.70;;;0.70;;
15449;SDS011;7826;49.784;9.934;2022-10-16T04:14:43;0.70;;;0.70;;
15449;SDS011;7826;49.784;9.934;2022-10-16T04:17:10;1.10;;;1.10;;
15449;SDS011;7826;49.784;9.934;2022-10-16T04:19:36;0.93;;;0.93;;
15449;SDS011;7826;49.784;9.934;2022-10-16T04:22:02;1.20;;;1.10;;
15449;SDS011;7826;49.784;9.934;2022-10-16T04:24:28;1.23;;;0.80;;
15449;SDS011;7826;49.784;9.934;2022-10-16T04:26:55;2.50;;;1.40;;
15449;SDS011;7826;49.784;9.934;2022-10-16T04:29:21;1.37;;;1.10;;
15449;SDS011;7826;49.784;9.934;2022-10-16T04:31:47;0.80;;;0.80;;
15449;SDS011;7826;49.784;9.934;2022-10-16T04:34:14;1.23;;;1.13;;
15449;SDS011;7826;49.784;9.934;2022-10-16T04:36:40;0.90;;;0.90;;
15449;SDS011;7826;49.784;9.934;2022-10-16T04:39:07;0.97;;;0.97;;
15449;SDS011;7826;49.784;9.934;2022-10-16T04:41:34;0.87;;;0.87;;
15449;SDS011;7826;49.784;9.934;2022-10-16T04:44:00;1.10;;;1.10;;
15449;SDS011;7826;49.784;9.934;2022-10-16T04:46:26;1.17;;;1.07;;
15449;SDS011;7826;49.784;9.934;2022-10-16T04:48:52;1.20;;;1.10;;
15449;SDS011;7826;49.784;9.934;2022-10-16T04:51:19;1.00;;;1.00;;
15449;SDS011;7826;49.784;9.934;2022-10-16T04:53:45;1.00;;;1.00;;
15449;SDS011;7826;49.784;9.934;2022-10-16T04:56:11;2.13;;;1.10;;
15449;SDS011;7826;49.784;9.934;2022-10-16T04:58:38;1.00;;;1.00;;
15449;SDS011;7826;49.784;9.934;2022-10-16T05:01:04;0.87;;;0.87;;
15449;SDS011;7826;49.784;9.934;2022-10-16T05:03:30;1.30;;;1.20;;
15449;SDS011;7826;49.784;9.934;2022-10-16T05:05:57;1.00;;;1.00;;
15449;SDS011;7826;49.784;9.934;2022-10-16T05:08:23;1.20;;;1.00;;
15449;SDS011;7826;49.784;9.934;2022-10-16T05:10:49;0.87;;;0.87;;
15449;SDS011;7826;49.784;9.934;2022-10-16T05:13:15;1.50;;;1.10;;
15449;SDS011;7826;49.784;9.934;2022-10-16T05:15:42;0.60;;;0.60;;
15449;SDS011;7826;49.784;9.934;2022-10-16T05:18:11;2.50;;;1.00;;
15449;SDS011;7826;49.784;9.934;2022-10-16T05:20:38;0.90;;;0.90;;
15449;SDS011;7826;49.784;9.934;2022-10-16T05:23:04;0.83;;;0.83;;
15449;SDS011;7826;49.784;9.934;2022-10-16T05:25:30;1.43;;;0.97;;
15449;SDS011;7826;49.784;9.934;2022-10-16T05:27:56;1.00;;;1.00;;
15449;SDS011;7826;49.784;9.934;2022-10-16T05:30:23;1.00;;;1.00;;
15449;SDS011;7826;49.784;9.934;2022-10-16T05:32:50;1.10;;;1.00;;
15449;SDS011;7826;49.784;9.934;2022-10-16T05:35:17;1.00;;;1.00;;
15449;SDS011;7826;49.784;9.934;2022-10-16T05:37:44;2.37;;;1.00;;
15449;SDS011;7826;49.784;9.934;2022-10-16T05:40:11;0.90;;;0.90;;
15449;SDS011;7826;49.784;9.934;2022-10-16T05:45:06;1.20;;;1.10;;
15449;SDS011;7826;49.784;9.934;2022-10-16T05:47:34;0.90;;;0.90;;
15449;SDS011;7826;49.784;9.934;2022-10-16T05:50:01;1.00;;;1.00;;
15449;SDS011;7826;49.784;9.934;2022-10-16T05:52:29;2.37;;;1.10;;
15449;SDS011;7826;49.784;9.934;2022-10-16T05:54:56;1.33;;;1.23;;
15449;SDS011;7826;49.784;9.934;2022-10-16T05:57:22;1.00;;;0.93;;
15449;SDS011;7826;49.784;9.934;2022-10-16T05:59:48;0.90;;;0.90;;
15449;SDS011;7826;49.784;9.934;2022-10-16T06:02:14;1.17;;;1.10;;
15449;SDS011;7826;49.784;9.934;2022-10-16T06:04:41;1.00;;;1.00;;
15449;SDS011;7826;49.784;9.934;2022-10-16T06:07:07;0.90;;;0.90;;
15449;SDS011;7826;49.784;9.934;2022-10-16T06:09:34;1.40;;;1.30;;
15449;SDS011;7826;49.784;9.934;2022-10-16T06:12:00;1.10;;;1.00;;
15449;SDS011;7826;49.784;9.934;2022-10-16T06:14:26;1.20;;;1.10;;
15449;SDS011;7826;49.784;9.934;2022-10-16T06:16:53;1.33;;;0.90;;
15449;SDS011;7826;49.784;9.934;2022-10-16T06:19:19;1.13;;;1.13;;
15449;SDS011;7826;49.784;9.934;2022-10-16T06:21:46;0.97;;;0.97;;
15449;SDS011;7826;49.784;9.934;2022-10-16T06:24:12;1.30;;;1.10;;
15449;SDS011;7826;49.784;9.934;2022-10-16T06:26:38;1.60;;;1.17;;
15449;SDS011;7826;49.784;9.934;2022-10-16T06:29:05;1.43;;;1.30;;
15449;SDS011;7826;49.784;9.934;2022-10-16T06:31:31;1.10;;;1.10;;
15449;SDS011;7826;49.784;9.934;2022-10-16T06:33:59;1.00;;;1.00;;
15449;SDS011;7826;49.784;9.934;2022-10-16T06:36:26;0.97;;;0.97;;
15449;SDS011;7826;49.784;9.934;2022-10-16T06:38:53;1.10;;;1.00;;
15449;SDS011;7826;49.784;9.934;2022-10-16T06:41:20;0.90;;;0.90;;
15449;SDS011;7826;49.784;9.934;2022-10-16T06:43:47;0.90;;;0.90;;
15449;SDS011;7826;49.784;9.934;2022-10-16T06:46:14;0.90;;;0.90;;
15449;SDS011;7826;49.784;9.934;2022-10-16T06:48:42;0.97;;;0.97;;
15449;SDS011;7826;49.784;9.934;2022-10-16T06:51:10;1.10;;;1.10;;
15449;SDS011;7826;49.784;9.934;2022-10-16T06:53:43;1.27;;;1.17;;
15449;SDS011;7826;49.784;9.934;2022-10-16T06:56:18;1.20;;;1.10;;
15449;SDS011;7826;49.784;9.934;2022-10-16T06:58:46;1.03;;;1.03;;
15449;SDS011;7826;49.784;9.934;2022-10-16T07:01:15;1.00;;;0.93;;
15449;SDS011;7826;49.784;9.934;2022-10-16T07:03:43;1.43;;;1.30;;
15449;SDS011;7826;49.784;9.934;2022-10-16T07:06:11;1.30;;;1.20;;
15449;SDS011;7826;49.784;9.934;2022-10-16T07:08:40;1.27;;;1.13;;
15449;SDS011;7826;49.784;9.934;2022-10-16T07:11:08;1.00;;;1.00;;
15449;SDS011;7826;49.784;9.934;2022-10-16T07:13:40;1.60;;;1.10;;
15449;SDS011;7826;49.784;9.934;2022-10-16T07:16:12;1.27;;;1.17;;
15449;SDS011;7826;49.784;9.934;2022-10-16T07:18:40;1.00;;;0.90;;
15449;SDS011;7826;49.784;9.934;2022-10-16T07:21:09;1.10;;;1.10;;
15449;SDS011;7826;49.784;9.934;2022-10-16T07:23:51;0.80;;;0.80;;
15449;SDS011;7826;49.784;9.934;2022-10-16T07:26:19;2.07;;;1.30;;
15449;SDS011;7826;49.784;9.934;2022-10-16T07:28:45;1.10;;;1.10;;
15449;SDS011;7826;49.784;9.934;2022-10-16T07:31:12;1.33;;;1.20;;
15449;SDS011;7826;49.784;9.934;2022-10-16T07:33:40;1.30;;;1.20;;
15449;SDS011;7826;49.784;9.934;2022-10-16T07:36:09;1.80;;;1.70;;
15449;SDS011;7826;49.784;9.934;2022-10-16T07:38:37;1.77;;;1.27;;
15449;SDS011;7826;49.784;9.934;2022-10-16T07:41:05;2.07;;;1.50;;
15449;SDS011;7826;49.784;9.934;2022-10-16T07:43:32;1.77;;;1.40;;
15449;SDS011;7826;49.784;9.934;2022-10-16T07:45:59;1.97;;;1.43;;
15449;SDS011;7826;49.784;9.934;2022-10-16T07:48:26;1.47;;;1.37;;
15449;SDS011;7826;49.784;9.934;2022-10-16T07:51:01;1.40;;;1.20;;
15449;SDS011;7826;49.784;9.934;2022-10-16T07:53:30;1.10;;;1.10;;
15449;SDS011;7826;49.784;9.934;2022-10-16T07:56:00;1.33;;;1.20;;
15449;SDS011;7826;49.784;9.934;2022-10-16T07:58:28;1.50;;;1.40;;
15449;SDS011;7826;49.784;9.934;2022-10-16T08:00:55;1.50;;;1.40;;
15449;SDS011;7826;49.784;9.934;2022-10-16T08:03:23;1.70;;;1.60;;
15449;SDS011;7826;49.784;9.934;2022-10-16T08:05:50;2.17;;;1.50;;
15449;SDS011;7826;49.784;9.934;2022-10-16T08:08:16;1.43;;;1.33;;
15449;SDS011;7826;49.784;9.934;2022-10-16T08:10:43;1.47;;;1.37;;
15449;SDS011;7826;49.784;9.934;2022-10-16T08:13:10;1.40;;;1.30;;
15449;SDS011;7826;49.784;9.934;2022-10-16T08:15:36;2.57;;;1.80;;
15449;SDS011;7826;49.784;9.934;2022-10-16T08:18:03;1.50;;;1.40;;
15449;SDS011;7826;49.784;9.934;2022-10-16T08:20:31;3.27;;;1.80;;
15449;SDS011;7826;49.784;9.934;2022-10-16T08:22:58;1.60;;;1.50;;
15449;SDS011;7826;49.784;9.934;2022-10-16T08:25:26;2.03;;;1.40;;
15449;SDS011;7826;49.784;9.934;2022-10-16T08:27:53;1.90;;;1.60;;
15449;SDS011;7826;49.784;9.934;2022-10-16T08:30:21;1.70;;;1.60;;
15449;SDS011;7826;49.784;9.934;2022-10-16T08:32:48;1.87;;;1.73;;
15449;SDS011;7826;49.784;9.934;2022-10-16T08:35:15;2.47;;;2.00;;
15449;SDS011;7826;49.784;9.934;2022-10-16T08:37:42;2.20;;;1.50;;
15449;SDS011;7826;49.784;9.934;2022-10-16T08:40:42;1.47;;;1.37;;
15449;SDS011;7826;49.784;9.934;2022-10-16T08:48:52;2.70;;;1.87;;
15449;SDS011;7826;49.784;9.934;2022-10-16T08:53:58;1.60;;;1.50;;
15449;SDS011;7826;49.784;9.934;2022-10-16T08:56:28;2.00;;;1.70;;
15449;SDS011;7826;49.784;9.934;2022-10-16T08:58:54;1.40;;;1.30;;
15449;SDS011;7826;49.784;9.934;2022-10-16T09:01:23;1.40;;;1.30;;
15449;SDS011;7826;49.784;9.934;2022-10-16T09:06:56;1.23;;;1.13;;
15449;SDS011;7826;49.784;9.934;2022-10-16T09:11:58;1.10;;;1.07;;
15449;SDS011;7826;49.784;9.934;2022-10-16T09:23:08;1.60;;;1.50;;
15449;SDS011;7826;49.784;9.934;2022-10-16T09:25:44;1.10;;;1.10;;
15449;SDS011;7826;49.784;9.934;2022-10-16T09:28:13;1.30;;;1.30;;
15449;SDS011;7826;49.784;9.934;2022-10-16T09:30:41;1.90;;;1.30;;
15449;SDS011;7826;49.784;9.934;2022-10-16T09:33:08;2.00;;;1.50;;
15449;SDS011;7826;49.784;9.934;2022-10-16T09:35:37;1.17;;;1.17;;
15449;SDS011;7826;49.784;9.934;2022-10-16T09:38:05;1.50;;;1.40;;
15449;SDS011;7826;49.784;9.934;2022-10-16T09:40:36;3.20;;;1.20;;
15449;SDS011;7826;49.784;9.934;2022-10-16T09:43:38;1.30;;;1.20;;
15449;SDS011;7826;49.784;9.934;2022-10-16T09:46:08;1.67;;;1.20;;
15449;SDS011;7826;49.784;9.934;2022-10-16T09:48:50;0.90;;;0.90;;
15449;SDS011;7826;49.784;9.934;2022-10-16T09:53:47;1.47;;;1.37;;
15449;SDS011;7826;49.784;9.934;2022-10-16T09:56:24;1.30;;;1.20;;
15449;SDS011;7826;49.784;9.934;2022-10-16T09:58:54;1.27;;;1.17;;
15449;SDS011;7826;49.784;9.934;2022-10-16T10:01:47;1.10;;;1.10;;
15449;SDS011;7826;49.784;9.934;2022-10-16T10:04:22;3.03;;;2.57;;
15449;SDS011;7826;49.784;9.934;2022-10-16T10:06:51;2.87;;;1.53;;
15449;SDS011;7826;49.784;9.934;2022-10-16T10:09:21;3.00;;;1.83;;
15449;SDS011;7826;49.784;9.934;2022-10-16T10:11:58;2.30;;;1.80;;
15449;SDS011;7826;49.784;9.934;2022-10-16T10:14:26;1.50;;;1.40;;
15449;SDS011;7826;49.784;9.934;2022-10-16T10:22:24;1.60;;;1.47;;
15449;SDS011;7826;49.784;9.934;2022-10-16T10:46:45;1.23;;;1.23;;
15449;SDS011;7826;49.784;9.934;2022-10-16T10:57:59;3.93;;;2.13;;
15449;SDS011;7826;49.784;9.934;2022-10-16T11:06:36;1.47;;;1.37;;
15449;SDS011;7826;49.784;9.934;2022-10-16T11:11:42;2.30;;;1.20;;
15449;SDS011;7826;49.784;9.934;2022-10-16T11:17:07;1.10;;;1.10;;
15449;SDS011;7826;49.784;9.934;2022-10-16T11:19:49;1.70;;;1.60;;
15449;SDS011;7826;49.784;9.934;2022-10-16T11:22:26;2.17;;;1.40;;
15449;SDS011;7826;49.784;9.934;2022-10-16T11:25:06;1.57;;;1.33;;
15449;SDS011;7826;49.784;9.934;2022-10-16T11:30:25;1.40;;;1.30;;
15449;SDS011;7826;49.784;9.934;2022-10-16T11:35:37;1.33;;;1.30;;
15449;SDS011;7826;49.784;9.934;2022-10-16T11:38:10;1.40;;;1.30;;
15449;SDS011;7826;49.784;9.934;2022-10-16T11:40:41;1.20;;;1.20;;
15449;SDS011;7826;49.784;9.934;2022-10-16T11:43:14;1.30;;;1.20;;
15449;SDS011;7826;49.784;9.934;2022-10-16T11:45:55;1.10;;;1.10;;
15449;SDS011;7826;49.784;9.934;2022-10-16T11:48:33;0.90;;;0.90;;
15449;SDS011;7826;49.784;9.934;2022-10-16T11:51:21;1.20;;;1.00;;
15449;SDS011;7826;49.784;9.934;2022-10-16T11:56:52;1.10;;;1.10;;
15449;SDS011;7826;49.784;9.934;2022-10-16T11:59:27;1.00;;;1.00;;
15449;SDS011;7826;49.784;9.934;2022-10-16T12:08:15;1.30;;;1.20;;
15449;SDS011;7826;49.784;9.934;2022-10-16T12:10:43;0.93;;;0.93;;
15449;SDS011;7826;49.784;9.934;2022-10-16T12:18:43;0.93;;;0.93;;
15449;SDS011;7826;49.784;9.934;2022-10-16T12:21:11;0.93;;;0.90;;
15449;SDS011;7826;49.784;9.934;2022-10-16T12:23:52;3.33;;;1.30;;
15449;SDS011;7826;49.784;9.934;2022-10-16T12:26:24;1.13;;;1.13;;
15449;SDS011;7826;49.784;9.934;2022-10-16T12:29:14;1.30;;;1.20;;
15449;SDS011;7826;49.784;9.934;2022-10-16T12:31:55;0.80;;;0.80;;
15449;SDS011;7826;49.784;9.934;2022-10-16T12:36:51;0.90;;;0.90;;
15449;SDS011;7826;49.784;9.934;2022-10-16T12:39:22;1.07;;;1.00;;
15449;SDS011;7826;49.784;9.934;2022-10-16T12:42:18;0.90;;;0.90;;
15449;SDS011;7826;49.784;9.934;2022-10-16T12:44:51;1.47;;;1.37;;
15449;SDS011;7826;49.784;9.934;2022-10-16T12:47:19;1.00;;;1.00;;
15449;SDS011;7826;49.784;9.934;2022-10-16T12:49:49;1.17;;;1.07;;
15449;SDS011;7826;49.784;9.934;2022-10-16T12:52:53;0.97;;;0.97;;
15449;SDS011;7826;49.784;9.934;2022-10-16T12:55:15;1.20;;;1.10;;
15449;SDS011;7826;49.784;9.934;2022-10-16T13:11:31;1.83;;;1.03;;
15449;SDS011;7826;49.784;9.934;2022-10-16T13:32:46;1.10;;;1.03;;
15449;SDS011;7826;49.784;9.934;2022-10-16T13:35:25;1.03;;;1.03;;
15449;SDS011;7826;49.784;9.934;2022-10-16T13:40:58;1.23;;;1.13;;
15449;SDS011;7826;49.784;9.934;2022-10-16T13:43:38;1.40;;;0.90;;
15449;SDS011;7826;49.784;9.934;2022-10-16T13:46:17;1.10;;;1.00;;
15449;SDS011;7826;49.784;9.934;2022-10-16T13:48:55;1.13;;;1.13;;
15449;SDS011;7826;49.784;9.934;2022-10-16T13:51:27;1.03;;;1.03;;
15449;SDS011;7826;49.784;9.934;2022-10-16T13:53:55;0.90;;;0.90;;
15449;SDS011;7826;49.784;9.934;2022-10-16T13:56:26;1.53;;;1.33;;
15449;SDS011;7826;49.784;9.934;2022-10-16T13:59:37;0.80;;;0.80;;
15449;SDS011;7826;49.784;9.934;2022-10-16T14:02:09;1.10;;;1.00;;
15449;SDS011;7826;49.784;9.934;2022-10-16T14:05:00;1.47;;;1.37;;
15449;SDS011;7826;49.784;9.934;2022-10-16T14:07:30;1.43;;;1.17;;
15449;SDS011;7826;49.784;9.934;2022-10-16T14:10:00;1.07;;;1.07;;
15449;SDS011;7826;49.784;9.934;2022-10-16T14:12:30;1.13;;;1.10;;
15449;SDS011;7826;49.784;9.934;2022-10-16T14:14:57;1.27;;;1.17;;
15449;SDS011;7826;49.784;9.934;2022-10-16T14:17:26;1.10;;;1.10;;
15449;SDS011;7826;49.784;9.934;2022-10-16T14:19:55;1.40;;;1.30;;
15449;SDS011;7826;49.784;9.934;2022-10-16T14:22:34;1.20;;;1.10;;
15449;SDS011;7826;49.784;9.934;2022-10-16T14:28:03;1.07;;;1.07;;
15449;SDS011;7826;49.784;9.934;2022-10-16T14:30:32;1.60;;;1.27;;
15449;SDS011;7826;49.784;9.934;2022-10-16T14:33:02;1.60;;;1.10;;
15449;SDS011;7826;49.784;9.934;2022-10-16T14:35:31;1.23;;;1.13;;
15449;SDS011;7826;49.784;9.934;2022-10-16T14:38:03;1.40;;;1.30;;
15449;SDS011;7826;49.784;9.934;2022-10-16T14:40:33;1.07;;;1.07;;
15449;SDS011;7826;49.784;9.934;2022-10-16T14:43:02;1.33;;;1.23;;
15449;SDS011;7826;49.784;9.934;2022-10-16T14:45:31;1.23;;;1.20;;
15449;SDS011;7826;49.784;9.934;2022-10-16T14:48:01;3.27;;;1.40;;
15449;SDS011;7826;49.784;9.934;2022-10-16T14:50:30;2.03;;;1.30;;
15449;SDS011;7826;49.784;9.934;2022-10-16T14:52:56;1.33;;;1.23;;
15449;SDS011;7826;49.784;9.934;2022-10-16T14:55:24;1.30;;;1.20;;
15449;SDS011;7826;49.784;9.934;2022-10-16T14:57:51;1.67;;;1.30;;
15449;SDS011;7826;49.784;9.934;2022-10-16T15:00:18;1.40;;;1.10;;
15449;SDS011;7826;49.784;9.934;2022-10-16T15:02:50;1.47;;;1.37;;
15449;SDS011;7826;49.784;9.934;2022-10-16T15:05:20;1.13;;;1.13;;
15449;SDS011;7826;49.784;9.934;2022-10-16T15:07:52;3.03;;;1.40;;
15449;SDS011;7826;49.784;9.934;2022-10-16T15:10:20;1.37;;;1.27;;
15449;SDS011;7826;49.784;9.934;2022-10-16T15:12:48;1.97;;;1.37;;
15449;SDS011;7826;49.784;9.934;2022-10-16T15:17:53;1.67;;;1.57;;
15449;SDS011;7826;49.784;9.934;2022-10-16T15:20:30;2.07;;;1.23;;
15449;SDS011;7826;49.784;9.934;2022-10-16T15:23:03;1.40;;;1.30;;
15449;SDS011;7826;49.784;9.934;2022-10-16T15:28:08;1.33;;;1.23;;
15449;SDS011;7826;49.784;9.934;2022-10-16T15:30:35;1.43;;;1.33;;
15449;SDS011;7826;49.784;9.934;2022-10-16T15:33:02;1.30;;;1.23;;
15449;SDS011;7826;49.784;9.934;2022-10-16T15:35:30;1.37;;;1.27;;
15449;SDS011;7826;49.784;9.934;2022-10-16T15:37:56;2.33;;;1.30;;
15449;SDS011;7826;49.784;9.934;2022-10-16T15:40:23;1.40;;;1.30;;
15449;SDS011;7826;49.784;9.934;2022-10-16T15:42:50;1.40;;;1.30;;
15449;SDS011;7826;49.784;9.934;2022-10-16T15:45:16;1.83;;;1.10;;
15449;SDS011;7826;49.784;9.934;2022-10-16T15:47:44;1.47;;;1.37;;
15449;SDS011;7826;49.784;9.934;2022-10-16T15:50:12;1.53;;;1.43;;
15449;SDS011;7826;49.784;9.934;2022-10-16T15:52:40;3.27;;;1.60;;
15449;SDS011;7826;49.784;9.934;2022-10-16T15:55:08;1.60;;;1.50;;
15449;SDS011;7826;49.784;9.934;2022-10-16T15:57:35;1.50;;;1.40;;
15449;SDS011;7826;49.784;9.934;2022-10-16T16:00:07;1.60;;;1.50;;
15449;SDS011;7826;49.784;9.934;2022-10-16T16:02:36;1.97;;;1.87;;
15449;SDS011;7826;49.784;9.934;2022-10-16T16:05:02;1.57;;;1.50;;
15449;SDS011;7826;49.784;9.934;2022-10-16T16:07:32;1.77;;;1.60;;
15449;SDS011;7826;49.784;9.934;2022-10-16T16:09:59;2.43;;;1.90;;
15449;SDS011;7826;49.784;9.934;2022-10-16T16:12:26;1.70;;;1.60;;
15449;SDS011;7826;49.784;9.934;2022-10-16T16:14:52;1.90;;;1.70;;
15449;SDS011;7826;49.784;9.934;2022-10-16T16:17:18;1.90;;;1.40;;
15449;SDS011;7826;49.784;9.934;2022-10-16T16:19:45;2.17;;;1.73;;
15449;SDS011;7826;49.784;9.934;2022-10-16T16:22:11;1.50;;;1.40;;
15449;SDS011;7826;49.784;9.934;2022-10-16T16:24:38;6.43;;;1.50;;
15449;SDS011;7826;49.784;9.934;2022-10-16T16:27:06;1.63;;;1.53;;
15449;SDS011;7826;49.784;9.934;2022-10-16T16:29:33;1.90;;;1.70;;
15449;SDS011;7826;49.784;9.934;2022-10-16T16:31:59;1.63;;;1.53;;
15449;SDS011;7826;49.784;9.934;2022-10-16T16:34:26;1.70;;;1.60;;
15449;SDS011;7826;49.784;9.934;2022-10-16T16:36:54;1.60;;;1.50;;
15449;SDS011;7826;49.784;9.934;2022-10-16T16:39:21;1.73;;;1.63;;
15449;SDS011;7826;49.784;9.934;2022-10-16T16:41:48;1.70;;;1.50;;
15449;SDS011;7826;49.784;9.934;2022-10-16T16:44:15;2.80;;;1.80;;
15449;SDS011;7826;49.784;9.934;2022-10-16T16:46:42;1.70;;;1.60;;
15449;SDS011;7826;49.784;9.934;2022-10-16T16:49:10;4.10;;;1.93;;
15449;SDS011;7826;49.784;9.934;2022-10-16T16:51:38;1.97;;;1.77;;
15449;SDS011;7826;49.784;9.934;2022-10-16T16:54:05;1.60;;;1.50;;
15449;SDS011;7826;49.784;9.934;2022-10-16T16:56:33;1.83;;;1.73;;
15449;SDS011;7826;49.784;9.934;2022-10-16T16:59:00;3.00;;;1.60;;
15449;SDS011;7826;49.784;9.934;2022-10-16T17:01:27;1.90;;;1.70;;
15449;SDS011;7826;49.784;9.934;2022-10-16T17:03:55;2.13;;;1.50;;
15449;SDS011;7826;49.784;9.934;2022-10-16T17:06:26;1.87;;;1.77;;
15449;SDS011;7826;49.784;9.934;2022-10-16T17:08:55;1.67;;;1.57;;
15449;SDS011;7826;49.784;9.934;2022-10-16T17:11:23;2.57;;;2.00;;
15449;SDS011;7826;49.784;9.934;2022-10-16T17:13:51;1.90;;;1.67;;
15449;SDS011;7826;49.784;9.934;2022-10-16T17:16:20;1.83;;;1.73;;
15449;SDS011;7826;49.784;9.934;2022-10-16T17:18:48;2.00;;;1.80;;
15449;SDS011;7826;49.784;9.934;2022-10-16T17:21:14;3.17;;;2.10;;
15449;SDS011;7826;49.784;9.934;2022-10-16T17:23:41;1.80;;;1.70;;
15449;SDS011;7826;49.784;9.934;2022-10-16T17:26:08;1.90;;;1.80;;
15449;SDS011;7826;49.784;9.934;2022-10-16T17:28:38;3.07;;;1.63;;
15449;SDS011;7826;49.784;9.934;2022-10-16T17:31:08;1.60;;;1.50;;
15449;SDS011;7826;49.784;9.934;2022-10-16T17:33:36;1.90;;;1.80;;
15449;SDS011;7826;49.784;9.934;2022-10-16T17:36:03;3.27;;;1.70;;
15449;SDS011;7826;49.784;9.934;2022-10-16T17:38:30;1.70;;;1.60;;
15449;SDS011;7826;49.784;9.934;2022-10-16T17:40:57;2.00;;;1.90;;
15449;SDS011;7826;49.784;9.934;2022-10-16T17:43:25;1.70;;;1.60;;
15449;SDS011;7826;49.784;9.934;2022-10-16T17:45:51;1.87;;;1.77;;
15449;SDS011;7826;49.784;9.934;2022-10-16T17:48:19;2.77;;;2.00;;
15449;SDS011;7826;49.784;9.934;2022-10-16T17:50:46;3.17;;;1.87;;
15449;SDS011;7826;49.784;9.934;2022-10-16T17:53:12;2.67;;;1.77;;